Time;durP1;ratioP1;P1;durP2;ratioP2;P2;SDS_P1;SDS_P2;PMS_P1;PMS_P2;Temp;Humidity;BMP_temperature;BMP_pressure;BME280_temperature;BME280_humidity;BME280_pressure;Samples;Min_cycle;Max_cycle;Signal;HPM_P1;HPM_P2
2023/03/28 00:04:55;;;;;;;;;;;;;;;1.98;99.33;102555.53;10419713;28;20296;-66
2023/03/28 00:09:58;;;;;;;;;;;;;;;1.96;97.03;102557.25;10418668;28;19929;-65
2023/03/28 00:15:03;;;;;;;;;;;;;;;2.18;96.85;102559.97;10419518;28;19979;-64
2023/03/28 00:20:08;;;;;;;;;;;;;;;2.08;96.84;102563.34;10419781;28;20008;-64
2023/03/28 00:25:10;;;;;;;;;;;;;;;2.36;95.64;102561.78;10418831;28;19948;-64
2023/03/28 00:30:12;;;;;;;;;;;;;;;2.17;95.45;102563.38;10418437;28;19956;-66
2023/03/28 00:35:14;;;;;;;;;;;;;;;1.85;97.93;102571.81;10419467;28;19925;-66
2023/03/28 00:40:17;;;;;;;;;;;;;;;1.84;97.28;102575.25;10418950;28;19925;-64
2023/03/28 00:45:20;;;;;;;;;;;;;;;1.81;98.99;102572.63;10419380;28;19929;-66
2023/03/28 00:50:29;;;;;;;;;;;;;;;1.59;100.00;102575.03;10433123;28;19925;-65
2023/03/28 00:55:34;;;;;;;;;;;;;;;1.74;99.63;102570.88;10378053;28;19933;-66
2023/03/28 01:00:37;;;;;;;;;;;;;;;1.67;99.96;102568.22;10390670;28;19925;-65
2023/03/28 01:05:39;;;;;;;;;;;;;;;1.70;99.44;102576.84;10415073;28;19956;-65
2023/03/28 01:10:42;;;;;;;;;;;;;;;1.61;98.96;102572.47;10418262;28;19925;-64
2023/03/28 01:15:44;;;;;;;;;;;;;;;1.63;98.86;102563.00;10418680;28;19925;-65
2023/03/28 01:20:50;;;;;;;;;;;;;;;1.84;99.04;102554.59;10415399;28;20303;-66
2023/03/28 01:26:04;;;;;;;;;;;;;;;1.56;100.00;102551.78;10416496;28;19929;-65
2023/03/28 01:31:06;;;;;;;;;;;;;;;1.69;99.39;102552.75;10415878;28;20422;-65
2023/03/28 01:36:28;;;;;;;;;;;;;;;1.38;100.00;102562.81;10416851;28;19925;-65
2023/03/28 01:41:38;;;;;;;;;;;;;;;1.61;100.00;102550.09;10416431;28;19931;-65
2023/03/28 01:46:45;;;;;;;;;;;;;;;1.53;99.44;102553.47;10417093;28;19925;-66
2023/03/28 01:51:53;;;;;;;;;;;;;;;1.62;99.98;102553.56;10414749;28;20364;-65
2023/03/28 01:57:00;;;;;;;;;;;;;;;1.76;99.52;102551.94;10414846;28;19925;-65
2023/03/28 02:02:04;;;;;;;;;;;;;;;1.48;100.00;102554.31;10414884;28;19951;-65
2023/03/28 02:07:07;;;;;;;;;;;;;;;1.33;100.00;102556.75;10398297;28;19951;-66
2023/03/28 02:12:21;;;;;;;;;;;;;;;1.41;100.00;102549.97;10414619;28;19955;-66
2023/03/28 02:17:23;;;;;;;;;;;;;;;1.31;100.00;102553.28;10413275;28;19925;-65
2023/03/28 02:22:37;;;;;;;;;;;;;;;1.27;100.00;102536.91;10414866;28;20470;-65
2023/03/28 02:27:39;;;;;;;;;;;;;;;1.37;100.00;102539.59;10414788;28;19932;-65
2023/03/28 02:32:42;;;;;;;;;;;;;;;1.38;100.00;102533.53;10414729;28;19948;-65
2023/03/28 02:38:00;;;;;;;;;;;;;;;1.46;100.00;102549.97;10415851;28;19925;-65
2023/03/28 02:43:06;;;;;;;;;;;;;;;1.35;100.00;102546.44;10415135;28;19925;-65
2023/03/28 02:48:12;;;;;;;;;;;;;;;1.28;100.00;102530.91;10413521;28;19925;-65
2023/03/28 02:53:31;;;;;;;;;;;;;;;1.28;100.00;102540.38;10412420;28;19925;-65
2023/03/28 02:58:36;;;;;;;;;;;;;;;1.33;100.00;102537.81;10415533;28;19925;-65
2023/03/28 03:03:39;;;;;;;;;;;;;;;1.38;100.00;102530.97;10415355;28;19925;-66
2023/03/28 03:08:41;;;;;;;;;;;;;;;1.30;100.00;102539.53;10412711;28;20388;-65
2023/03/28 03:13:43;;;;;;;;;;;;;;;1.20;100.00;102542.88;10415228;28;19944;-66
2023/03/28 03:18:46;;;;;;;;;;;;;;;1.18;100.00;102542.00;10414420;28;20261;-64
2023/03/28 03:23:48;;;;;;;;;;;;;;;1.06;100.00;102547.91;10415006;28;19925;-66
2023/03/28 03:28:50;;;;;;;;;;;;;;;0.90;100.00;102539.13;10415791;28;19940;-65
2023/03/28 03:33:53;;;;;;;;;;;;;;;1.13;100.00;102547.94;10422077;28;19926;-65
2023/03/28 03:38:55;;;;;;;;;;;;;;;1.14;100.00;102545.38;10420856;28;20319;-65
2023/03/28 03:43:57;;;;;;;;;;;;;;;1.16;100.00;102548.88;10421853;28;19932;-66
2023/03/28 03:48:59;;;;;;;;;;;;;;;1.27;100.00;102548.94;10420447;28;19987;-65
2023/03/28 03:54:01;;;;;;;;;;;;;;;1.12;100.00;102547.09;10421455;28;19932;-65
2023/03/28 03:59:04;;;;;;;;;;;;;;;1.11;100.00;102545.38;10421022;28;20434;-65
2023/03/28 04:04:06;;;;;;;;;;;;;;;1.20;100.00;102547.16;10418716;28;19933;-65
2023/03/28 04:09:08;;;;;;;;;;;;;;;0.94;100.00;102542.59;10420127;28;19926;-65
2023/03/28 04:14:10;;;;;;;;;;;;;;;0.90;100.00;102548.56;10420018;28;19933;-65
2023/03/28 04:19:13;;;;;;;;;;;;;;;1.04;100.00;102546.13;10419885;28;19925;-65
2023/03/28 04:24:15;;;;;;;;;;;;;;;0.89;100.00;102546.84;10420279;28;19929;-65
2023/03/28 04:29:18;;;;;;;;;;;;;;;0.82;100.00;102556.22;10419007;28;19972;-65
2023/03/28 04:34:24;;;;;;;;;;;;;;;0.92;100.00;102555.50;10418625;28;20303;-65
2023/03/28 04:39:27;;;;;;;;;;;;;;;0.98;100.00;102552.09;10416788;28;19976;-65
2023/03/28 04:44:30;;;;;;;;;;;;;;;0.97;100.00;102546.94;10418835;28;19940;-66
2023/03/28 04:49:32;;;;;;;;;;;;;;;0.94;100.00;102545.16;10417962;28;19925;-65
2023/03/28 04:54:34;;;;;;;;;;;;;;;1.06;100.00;102547.91;10419082;28;19968;-65
2023/03/28 04:59:36;;;;;;;;;;;;;;;0.82;100.00;102551.06;10418865;28;19983;-65
2023/03/28 05:04:39;;;;;;;;;;;;;;;0.85;100.00;102545.94;10416878;28;19971;-66
2023/03/28 05:09:41;;;;;;;;;;;;;;;0.94;100.00;102565.81;10415978;28;19932;-65
2023/03/28 05:14:43;;;;;;;;;;;;;;;0.95;100.00;102558.94;10417695;28;19925;-65
2023/03/28 05:19:46;;;;;;;;;;;;;;;0.81;100.00;102564.81;10417486;28;20376;-66
2023/03/28 05:24:48;;;;;;;;;;;;;;;1.04;100.00;102565.09;10416085;28;19925;-65
2023/03/28 05:29:51;;;;;;;;;;;;;;;1.00;100.00;102571.03;10416801;28;19932;-66
2023/03/28 05:34:53;;;;;;;;;;;;;;;0.90;100.00;102572.66;10415454;28;20392;-66
2023/03/28 05:39:56;;;;;;;;;;;;;;;1.06;100.00;102580.53;10417387;28;19925;-65
2023/03/28 05:44:58;;;;;;;;;;;;;;;1.25;100.00;102586.78;10431785;28;19979;-65
2023/03/28 05:50:00;;;;;;;;;;;;;;;1.32;100.00;102595.44;10414974;28;19925;-65
2023/03/28 05:55:03;;;;;;;;;;;;;;;1.35;100.00;102600.66;10416136;28;19925;-66
2023/03/28 06:00:13;;;;;;;;;;;;;;;1.44;100.00;102593.84;10416728;28;19925;-66
2023/03/28 06:05:16;;;;;;;;;;;;;;;1.67;99.38;102590.63;10415250;28;20391;-66
2023/03/28 06:10:18;;;;;;;;;;;;;;;1.75;99.18;102583.78;10414912;28;19984;-66
2023/03/28 06:15:20;;;;;;;;;;;;;;;1.81;98.18;102581.25;10415189;28;19932;-66
2023/03/28 06:20:23;;;;;;;;;;;;;;;1.84;97.68;102577.81;10415349;28;19937;-67
2023/03/28 06:25:25;;;;;;;;;;;;;;;2.00;97.20;102582.25;10411621;28;19979;-65
2023/03/28 06:30:27;;;;;;;;;;;;;;;2.15;96.02;102578.03;10415787;28;19944;-65
2023/03/28 06:35:30;;;;;;;;;;;;;;;2.37;94.21;102585.06;10415717;28;20315;-65
2023/03/28 06:40:32;;;;;;;;;;;;;;;2.54;92.98;102589.44;10415115;28;19925;-65
2023/03/28 06:45:34;;;;;;;;;;;;;;;2.66;92.27;102586.06;10413739;28;19929;-65
2023/03/28 06:50:36;;;;;;;;;;;;;;;2.76;90.17;102580.06;10414786;28;19929;-65
2023/03/28 06:55:40;;;;;;;;;;;;;;;2.90;89.51;102582.69;10415420;28;19925;-65
2023/03/28 07:00:42;;;;;;;;;;;;;;;3.26;87.59;102586.22;10414558;28;19925;-65
2023/03/28 07:05:44;;;;;;;;;;;;;;;3.63;84.89;102584.56;10421447;28;19932;-65
2023/03/28 07:10:46;;;;;;;;;;;;;;;4.02;84.59;102580.22;10423243;28;19929;-67
2023/03/28 07:16:05;;;;;;;;;;;;;;;4.08;82.53;102587.09;10422212;28;19925;-66
2023/03/28 07:21:11;;;;;;;;;;;;;;;4.56;81.94;102589.59;10420895;28;20335;-66
2023/03/28 07:26:14;;;;;;;;;;;;;;;4.09;81.98;102592.28;10422632;28;19932;-66
2023/03/28 07:31:17;;;;;;;;;;;;;;;4.38;80.25;102598.28;10418843;28;19983;-66
2023/03/28 07:36:19;;;;;;;;;;;;;;;4.99;79.28;102603.25;10390897;28;20012;-67
2023/03/28 07:41:22;;;;;;;;;;;;;;;4.79;76.41;102603.34;10396030;28;19925;-67
2023/03/28 07:46:24;;;;;;;;;;;;;;;5.20;77.05;102610.03;10427772;28;20331;-67
2023/03/28 07:51:26;;;;;;;;;;;;;;;5.68;76.10;102609.72;10419647;28;19979;-67
2023/03/28 07:56:29;;;;;;;;;;;;;;;6.16;73.95;102613.66;10417668;28;20286;-66
2023/03/28 08:01:32;;;;;;;;;;;;;;;6.40;72.14;102615.16;10418187;28;19975;-66
2023/03/28 08:06:36;;;;;;;;;;;;;;;5.48;73.17;102621.97;10418110;28;19926;-66
2023/03/28 08:11:40;;;;;;;;;;;;;;;6.31;71.67;102611.75;10420746;28;19925;-66
2023/03/28 08:16:42;;;;;;;;;;;;;;;6.57;69.73;102613.22;10420391;28;19932;-66
2023/03/28 08:21:45;;;;;;;;;;;;;;;6.25;71.92;102604.00;10402775;28;19975;-66
2023/03/28 08:26:47;;;;;;;;;;;;;;;5.97;72.37;102610.38;10418313;28;20459;-67
2023/03/28 08:31:49;;;;;;;;;;;;;;;6.31;69.81;102608.31;10419692;28;20262;-67
2023/03/28 08:36:52;;;;;;;;;;;;;;;8.04;68.38;102603.28;10419150;28;20281;-68
2023/03/28 08:41:57;;;;;;;;;;;;;;;8.82;65.76;102606.97;10419020;28;20278;-67
2023/03/28 08:47:01;;;;;;;;;;;;;;;7.52;66.40;102603.25;10418834;28;20335;-67
2023/03/28 08:52:04;;;;;;;;;;;;;;;7.30;66.60;102609.69;10417941;28;19971;-67
2023/03/28 08:57:06;;;;;;;;;;;;;;;7.57;67.26;102600.59;10417833;28;20391;-68
2023/03/28 09:02:22;;;;;;;;;;;;;;;6.93;66.02;102594.56;10418897;28;20008;-68
2023/03/28 09:07:45;;;;;;;;;;;;;;;7.19;66.03;102596.81;10418051;28;20372;-66
2023/03/28 09:13:00;;;;;;;;;;;;;;;7.93;64.92;102590.41;10416598;28;19933;-67
2023/03/28 09:18:02;;;;;;;;;;;;;;;8.68;63.81;102599.44;10417647;28;19932;-68
2023/03/28 09:23:10;;;;;;;;;;;;;;;9.11;62.98;102584.59;10416803;28;19971;-68
2023/03/28 09:28:17;;;;;;;;;;;;;;;8.91;59.44;102585.06;10415947;28;19925;-68
2023/03/28 09:33:20;;;;;;;;;;;;;;;9.47;56.63;102582.03;10417334;28;19925;-68
2023/03/28 09:38:32;;;;;;;;;;;;;;;8.55;59.11;102572.72;10416845;28;19987;-68
2023/03/28 09:43:40;;;;;;;;;;;;;;;9.18;60.67;102578.34;10415471;28;19926;-68
2023/03/28 09:48:43;;;;;;;;;;;;;;;9.97;56.46;102569.41;10416296;28;19967;-68
2023/03/28 09:53:45;;;;;;;;;;;;;;;9.93;58.09;102565.16;10415823;28;19925;-68
2023/03/28 09:58:49;;;;;;;;;;;;;;;9.23;59.61;102562.53;10416792;28;20426;-68
2023/03/28 10:03:55;;;;;;;;;;;;;;;9.51;55.82;102559.28;10414838;28;19925;-68
2023/03/28 10:09:27;;;;;;;;;;;;;;;9.69;57.52;102550.97;10415893;28;20304;-67
2023/03/28 10:14:30;;;;;;;;;;;;;;;9.92;57.29;102537.28;10399591;28;19928;-70
2023/03/28 10:19:34;;;;;;;;;;;;;;;10.05;55.29;102537.78;10416606;28;19926;-68
2023/03/28 10:24:38;;;;;;;;;;;;;;;9.41;55.14;102529.88;10414677;28;19932;-68
2023/03/28 10:29:40;;;;;;;;;;;;;;;10.08;56.37;102521.16;10414485;28;20295;-68
2023/03/28 10:34:43;;;;;;;;;;;;;;;9.57;54.24;102522.53;10381629;28;19932;-68
2023/03/28 10:39:56;;;;;;;;;;;;;;;9.75;54.68;102502.84;10420133;28;19979;-68
2023/03/28 10:44:59;;;;;;;;;;;;;;;10.94;55.57;102484.56;10417647;28;20303;-67
2023/03/28 10:50:01;;;;;;;;;;;;;;;10.93;52.51;102480.25;10423207;28;19926;-69
2023/03/28 10:55:10;;;;;;;;;;;;;;;11.00;52.80;102471.28;10399523;28;19987;-68
2023/03/28 11:00:26;;;;;;;;;;;;;;;9.55;54.87;102485.06;10409882;28;19925;-68
2023/03/28 11:05:32;;;;;;;;;;;;;;;9.52;56.28;102469.50;10422792;28;19995;-68
2023/03/28 11:10:41;;;;;;;;;;;;;;;9.42;55.52;102466.25;10421300;28;19925;-67
2023/03/28 11:16:04;;;;;;;;;;;;;;;9.00;57.72;102458.59;10421179;28;20315;-68
2023/03/28 11:21:20;;;;;;;;;;;;;;;8.80;54.83;102462.50;10422840;28;19964;-69
2023/03/28 11:26:24;;;;;;;;;;;;;;;9.69;55.94;102438.50;10421823;28;19925;-69
2023/03/28 11:31:32;;;;;;;;;;;;;;;9.83;54.04;102443.34;10421943;28;20426;-68
2023/03/28 11:36:54;;;;;;;;;;;;;;;10.12;54.05;102436.41;10421452;28;19952;-68
2023/03/28 11:41:58;;;;;;;;;;;;;;;11.02;50.79;102417.03;10420110;28;20377;-68
2023/03/28 11:47:11;;;;;;;;;;;;;;;11.70;47.33;102417.31;10403520;23;19926;-67
2023/03/28 11:52:20;;;;;;;;;;;;;;;12.95;47.34;102394.97;10395215;28;20413;-67
2023/03/28 11:57:23;;;;;;;;;;;;;;;11.92;49.56;102406.94;10379346;28;19956;-67
2023/03/28 12:02:34;;;;;;;;;;;;;;;11.71;47.74;102385.75;10379650;28;19976;-68
2023/03/28 12:07:42;;;;;;;;;;;;;;;11.64;48.03;102373.78;10379179;28;19929;-68
2023/03/28 12:12:50;;;;;;;;;;;;;;;10.70;48.90;102370.94;10378058;28;19953;-68
2023/03/28 12:17:56;;;;;;;;;;;;;;;12.42;50.96;102353.34;10379630;28;19926;-68
2023/03/28 12:23:00;;;;;;;;;;;;;;;13.28;49.01;102333.97;10378645;28;19968;-68
2023/03/28 12:28:21;;;;;;;;;;;;;;;12.37;50.66;102329.91;10378027;28;19930;-68
2023/03/28 12:33:36;;;;;;;;;;;;;;;12.68;49.22;102325.16;10378370;28;20270;-68
2023/03/28 12:38:41;;;;;;;;;;;;;;;13.10;49.78;102317.22;10377714;28;19925;-68
2023/03/28 12:43:50;;;;;;;;;;;;;;;13.13;46.08;102316.19;10377285;28;19926;-68
2023/03/28 12:48:55;;;;;;;;;;;;;;;12.38;49.00;102300.09;10377118;28;19948;-68
2023/03/28 12:53:59;;;;;;;;;;;;;;;11.82;47.25;102301.41;10376667;28;19926;-68
2023/03/28 12:59:15;;;;;;;;;;;;;;;10.37;48.96;102275.13;10378144;28;19956;-68
2023/03/28 13:04:17;;;;;;;;;;;;;;;11.70;49.12;102278.25;10375411;28;19929;-68
2023/03/28 13:09:27;;;;;;;;;;;;;;;11.04;50.28;102278.94;10377077;28;19932;-68
2023/03/28 13:14:34;;;;;;;;;;;;;;;11.86;49.53;102278.53;10375606;28;20391;-68
2023/03/28 13:19:44;;;;;;;;;;;;;;;11.42;47.63;102274.06;10376123;28;19935;-68
2023/03/28 13:24:46;;;;;;;;;;;;;;;11.35;48.58;102259.47;10377684;28;19925;-68
2023/03/28 13:29:49;;;;;;;;;;;;;;;10.23;49.86;102249.34;10375204;28;20348;-68
2023/03/28 13:34:56;;;;;;;;;;;;;;;11.93;48.46;102256.41;10375053;28;20265;-68
2023/03/28 13:39:59;;;;;;;;;;;;;;;10.89;47.96;102263.75;10375487;28;19964;-66
2023/03/28 13:45:05;;;;;;;;;;;;;;;11.46;48.27;102259.91;10375829;28;19932;-68
2023/03/28 13:50:27;;;;;;;;;;;;;;;11.56;47.67;102255.19;10374312;28;19936;-68
2023/03/28 13:55:30;;;;;;;;;;;;;;;12.39;43.61;102230.91;10374997;28;19957;-68
2023/03/28 14:00:32;;;;;;;;;;;;;;;12.90;45.10;102220.81;10374863;28;19932;-68
2023/03/28 14:05:40;;;;;;;;;;;;;;;13.98;43.72;102217.59;10375875;28;19977;-68
2023/03/28 14:10:43;;;;;;;;;;;;;;;14.74;41.10;102202.31;10373687;28;19925;-68
2023/03/28 14:15:45;;;;;;;;;;;;;;;13.73;43.35;102181.94;10373577;28;19926;-68
2023/03/28 14:20:47;;;;;;;;;;;;;;;14.86;41.59;102177.97;10375633;28;19930;-68
2023/03/28 14:25:50;;;;;;;;;;;;;;;13.68;42.74;102173.41;10374702;28;20365;-68
2023/03/28 14:30:52;;;;;;;;;;;;;;;13.29;42.71;102148.06;10372950;28;19925;-69
2023/03/28 14:36:01;;;;;;;;;;;;;;;14.10;44.75;102151.13;10372808;28;19968;-68
2023/03/28 14:41:10;;;;;;;;;;;;;;;13.46;44.28;102132.34;10373577;28;20332;-68
2023/03/28 14:46:13;;;;;;;;;;;;;;;13.92;44.18;102116.09;10372517;28;19925;-68
2023/03/28 14:51:15;;;;;;;;;;;;;;;13.04;45.79;102122.91;10374771;28;19936;-69
2023/03/28 14:56:21;;;;;;;;;;;;;;;11.99;46.42;102110.94;10374798;28;19930;-68
2023/03/28 15:01:23;;;;;;;;;;;;;;;12.72;46.46;102100.75;10373563;28;19925;-68
2023/03/28 15:06:28;;;;;;;;;;;;;;;13.06;48.64;102094.75;10372734;28;19964;-68
2023/03/28 15:11:31;;;;;;;;;;;;;;;12.48;45.86;102074.66;10372526;28;19949;-69
2023/03/28 15:16:38;;;;;;;;;;;;;;;12.70;46.09;102057.94;10372583;28;19926;-68
2023/03/28 15:21:40;;;;;;;;;;;;;;;12.12;45.79;102056.13;10372381;28;19932;-68
2023/03/28 15:26:44;;;;;;;;;;;;;;;11.63;45.96;102035.44;10378828;28;19975;-68
2023/03/28 15:31:46;;;;;;;;;;;;;;;11.48;46.84;102029.06;10380807;28;19925;-68
2023/03/28 15:37:02;;;;;;;;;;;;;;;11.57;45.76;102019.97;10380041;28;19925;-68
2023/03/28 15:42:19;;;;;;;;;;;;;;;11.38;46.33;102017.25;10367098;28;19930;-65
2023/03/28 15:47:22;;;;;;;;;;;;;;;10.96;47.60;102008.44;10379232;28;19926;-66
2023/03/28 15:52:25;;;;;;;;;;;;;;;10.93;49.16;102004.19;10390019;28;20020;-67
2023/03/28 15:57:28;;;;;;;;;;;;;;;11.28;48.64;101995.78;10380254;28;19936;-66
2023/03/28 16:02:31;;;;;;;;;;;;;;;10.92;49.95;101991.16;10378741;28;19980;-66
2023/03/28 16:07:33;;;;;;;;;;;;;;;10.68;48.65;101985.97;10380023;28;19932;-66
2023/03/28 16:12:35;;;;;;;;;;;;;;;10.35;49.30;101985.47;10379925;28;19926;-66
2023/03/28 16:17:40;;;;;;;;;;;;;;;10.43;49.27;101975.56;10378386;28;19933;-66
2023/03/28 16:22:43;;;;;;;;;;;;;;;10.37;49.69;101979.28;10379605;28;20000;-66
2023/03/28 16:27:45;;;;;;;;;;;;;;;10.39;49.99;101987.94;10363210;28;19926;-66
2023/03/28 16:32:49;;;;;;;;;;;;;;;10.25;50.29;101984.09;10336823;28;27984;-66
2023/03/28 16:37:52;;;;;;;;;;;;;;;10.36;49.97;101977.56;10350026;28;20428;-66
2023/03/28 16:42:54;;;;;;;;;;;;;;;10.03;50.68;101980.47;10346035;28;19972;-66
2023/03/28 16:47:57;;;;;;;;;;;;;;;9.95;52.01;101966.84;10336239;28;20000;-66
2023/03/28 16:53:01;;;;;;;;;;;;;;;9.93;50.23;101955.56;10337984;28;19926;-65
2023/03/28 16:58:03;;;;;;;;;;;;;;;9.68;50.04;101960.81;10377143;28;20284;-65
2023/03/28 17:03:05;;;;;;;;;;;;;;;9.80;50.98;101949.06;10377521;28;19980;-65
2023/03/28 17:08:08;;;;;;;;;;;;;;;9.77;52.60;101957.88;10375976;28;19935;-65
2023/03/28 17:13:10;;;;;;;;;;;;;;;9.52;51.05;101955.25;10343808;28;20432;-65
2023/03/28 17:18:12;;;;;;;;;;;;;;;9.45;54.54;101948.56;10333853;28;19925;-65
2023/03/28 17:23:15;;;;;;;;;;;;;;;9.25;52.33;101950.06;10336937;28;19926;-65
2023/03/28 17:28:17;;;;;;;;;;;;;;;9.45;50.20;101938.09;10371517;28;20376;-65
2023/03/28 17:33:19;;;;;;;;;;;;;;;9.29;53.38;101935.97;10362705;28;19926;-65
2023/03/28 17:38:22;;;;;;;;;;;;;;;9.30;51.67;101924.63;10374370;28;19926;-65
2023/03/28 17:43:24;;;;;;;;;;;;;;;8.88;54.25;101919.94;10375697;28;19925;-65
2023/03/28 17:48:26;;;;;;;;;;;;;;;8.98;55.00;101924.84;10376357;28;19925;-65
2023/03/28 17:53:28;;;;;;;;;;;;;;;8.72;56.59;101919.56;10335456;28;19934;-67
2023/03/28 17:58:31;;;;;;;;;;;;;;;8.52;58.73;101914.09;10374400;28;19995;-65
2023/03/28 18:03:34;;;;;;;;;;;;;;;8.52;57.02;101917.59;10375940;28;19984;-65
2023/03/28 18:08:36;;;;;;;;;;;;;;;8.30;60.91;101917.31;10375544;28;19933;-65
2023/03/28 18:13:38;;;;;;;;;;;;;;;8.48;60.25;101915.13;10372458;28;20022;-65
2023/03/28 18:18:40;;;;;;;;;;;;;;;8.27;61.71;101919.19;10375389;28;19926;-65
2023/03/28 18:23:42;;;;;;;;;;;;;;;8.50;62.72;101921.13;10344606;28;19962;-65
2023/03/28 18:28:45;;;;;;;;;;;;;;;7.92;65.75;101919.31;10334773;28;19984;-65
2023/03/28 18:33:47;;;;;;;;;;;;;;;7.97;65.40;101924.41;10334627;28;19930;-65
2023/03/28 18:38:49;;;;;;;;;;;;;;;8.14;67.40;101923.91;10368176;28;19925;-65
2023/03/28 18:43:52;;;;;;;;;;;;;;;7.62;67.31;101929.69;10372744;28;19976;-65
2023/03/28 18:48:58;;;;;;;;;;;;;;;7.57;68.10;101939.38;10373555;28;19972;-65
2023/03/28 18:54:00;;;;;;;;;;;;;;;7.87;69.05;101926.41;10373130;28;19925;-65
2023/03/28 18:59:02;;;;;;;;;;;;;;;7.56;72.30;101932.44;10344921;28;19926;-65
2023/03/28 19:04:05;;;;;;;;;;;;;;;7.13;73.96;101944.00;10382023;28;20261;-65
2023/03/28 19:09:07;;;;;;;;;;;;;;;7.04;76.49;101932.06;10381197;28;19930;-65
2023/03/28 19:14:10;;;;;;;;;;;;;;;7.02;78.76;101928.59;10379293;28;19932;-64
2023/03/28 19:19:12;;;;;;;;;;;;;;;6.63;82.39;101922.63;10353901;28;19926;-64
2023/03/28 19:24:14;;;;;;;;;;;;;;;6.59;82.69;101906.22;10390368;28;19972;-64
2023/03/28 19:29:17;;;;;;;;;;;;;;;6.31;85.37;101905.97;10371056;28;20075;-64
2023/03/28 19:34:19;;;;;;;;;;;;;;;6.36;87.35;101898.09;10379384;28;20340;-64
2023/03/28 19:39:21;;;;;;;;;;;;;;;6.48;86.12;101883.03;10379998;28;19925;-64
2023/03/28 19:44:24;;;;;;;;;;;;;;;6.50;86.26;101877.78;10380867;28;19930;-64
2023/03/28 19:49:26;;;;;;;;;;;;;;;6.42;85.59;101872.78;10381043;28;19926;-65
2023/03/28 19:54:28;;;;;;;;;;;;;;;6.40;85.61;101881.50;10379241;28;19980;-64
2023/03/28 19:59:31;;;;;;;;;;;;;;;6.27;86.39;101873.09;10364029;28;19925;-64
2023/03/28 20:04:33;;;;;;;;;;;;;;;6.03;89.54;101864.09;10324718;28;19926;-65
2023/03/28 20:09:35;;;;;;;;;;;;;;;6.34;86.68;101853.88;10373762;28;19926;-65
2023/03/28 20:14:37;;;;;;;;;;;;;;;6.27;87.37;101860.09;10379713;28;19929;-65
2023/03/28 20:19:40;;;;;;;;;;;;;;;5.93;90.87;101855.59;10378724;28;20668;-65
2023/03/28 20:24:42;;;;;;;;;;;;;;;6.15;92.07;101856.03;10378826;28;20384;-65
2023/03/28 20:29:45;;;;;;;;;;;;;;;6.31;90.83;101872.16;10374953;28;20364;-65
2023/03/28 20:34:47;;;;;;;;;;;;;;;5.87;90.24;101851.41;10351776;28;19930;-65
2023/03/28 20:39:50;;;;;;;;;;;;;;;6.11;92.08;101863.03;10338539;28;19926;-65
2023/03/28 20:44:54;;;;;;;;;;;;;;;6.04;91.49;101852.81;10337233;28;19929;-65
2023/03/28 20:50:07;;;;;;;;;;;;;;;6.06;91.82;101843.25;10377798;28;19925;-64
2023/03/28 20:55:10;;;;;;;;;;;;;;;6.10;93.86;101837.94;10378407;28;19926;-65
2023/03/28 21:00:15;;;;;;;;;;;;;;;5.97;96.61;101817.44;10376718;28;20284;-65
2023/03/28 21:05:17;;;;;;;;;;;;;;;5.90;93.47;101814.06;10378009;28;19925;-65
2023/03/28 21:10:19;;;;;;;;;;;;;;;5.78;91.96;101804.78;10377764;28;19955;-64
2023/03/28 21:15:22;;;;;;;;;;;;;;;5.96;92.34;101798.38;10391578;28;20355;-64
2023/03/28 21:20:24;;;;;;;;;;;;;;;5.84;90.21;101791.69;10376423;28;19925;-64
2023/03/28 21:25:27;;;;;;;;;;;;;;;5.56;92.80;101789.69;10376694;28;20332;-64
2023/03/28 21:30:29;;;;;;;;;;;;;;;5.79;92.87;101787.47;10374994;28;19930;-64
2023/03/28 21:35:32;;;;;;;;;;;;;;;5.72;91.74;101787.59;10376058;28;19972;-64
2023/03/28 21:40:34;;;;;;;;;;;;;;;5.73;92.60;101765.94;10376174;28;20435;-64
2023/03/28 21:45:37;;;;;;;;;;;;;;;5.86;92.33;101763.91;10374694;28;19929;-64
2023/03/28 21:50:39;;;;;;;;;;;;;;;5.73;91.30;101759.88;10376197;28;20016;-64
2023/03/28 21:55:41;;;;;;;;;;;;;;;5.59;92.85;101762.78;10375658;28;19932;-64
2023/03/28 22:00:44;;;;;;;;;;;;;;;5.85;94.49;101759.63;10375907;28;19925;-64
2023/03/28 22:05:48;;;;;;;;;;;;;;;5.80;93.83;101766.66;10373842;28;20376;-64
2023/03/28 22:10:51;;;;;;;;;;;;;;;5.33;95.80;101752.91;10374651;28;19984;-64
2023/03/28 22:15:57;;;;;;;;;;;;;;;5.67;96.50;101734.88;10374609;28;19979;-64
2023/03/28 22:21:00;;;;;;;;;;;;;;;5.51;95.23;101739.53;10373627;28;19925;-64
2023/03/28 22:26:05;;;;;;;;;;;;;;;5.42;97.15;101734.56;10374473;28;20036;-64
2023/03/28 22:31:08;;;;;;;;;;;;;;;5.34;97.30;101733.84;10374567;28;19960;-64
2023/03/28 22:36:10;;;;;;;;;;;;;;;5.40;97.88;101726.78;10382403;28;19926;-64
2023/03/28 22:41:12;;;;;;;;;;;;;;;5.55;95.79;101735.16;10382912;28;19925;-64
2023/03/28 22:46:15;;;;;;;;;;;;;;;5.57;96.93;101717.78;10382630;28;19930;-64
2023/03/28 22:51:17;;;;;;;;;;;;;;;5.33;99.90;101711.34;10381851;28;19929;-64
2023/03/28 22:56:23;;;;;;;;;;;;;;;5.68;97.73;101704.53;10381590;28;19932;-64
2023/03/28 23:01:27;;;;;;;;;;;;;;;5.57;97.87;101687.47;10382198;28;19941;-64
2023/03/28 23:06:30;;;;;;;;;;;;;;;5.55;98.69;101683.19;10382078;28;19973;-64
2023/03/28 23:11:33;;;;;;;;;;;;;;;5.70;97.82;101676.78;10381084;28;19926;-64
2023/03/28 23:16:37;;;;;;;;;;;;;;;5.62;97.71;101661.38;10382115;28;19926;-64
2023/03/28 23:21:40;;;;;;;;;;;;;;;5.50;97.90;101666.88;10381333;28;19925;-64
2023/03/28 23:26:42;;;;;;;;;;;;;;;5.63;97.60;101663.09;10381850;28;19926;-65
2023/03/28 23:31:45;;;;;;;;;;;;;;;5.63;95.63;101657.91;10381600;28;19926;-65
2023/03/28 23:36:49;;;;;;;;;;;;;;;5.51;95.82;101648.63;10380579;28;19926;-64
2023/03/28 23:41:51;;;;;;;;;;;;;;;5.88;96.93;101642.56;10380696;28;19929;-65
2023/03/28 23:46:55;;;;;;;;;;;;;;;5.87;96.17;101630.47;10379610;28;19925;-65
2023/03/28 23:51:57;;;;;;;;;;;;;;;5.64;94.96;101631.03;10379635;28;20421;-64
2023/03/28 23:56:59;;;;;;;;;;;;;;;5.76;97.14;101622.91;10380529;28;19926;-65
